createdAt,value
2022-10-17T00:00:35.100Z,4.20
2022-10-17T00:03:21.825Z,5.30
2022-10-17T00:05:48.559Z,4.60
2022-10-17T00:08:17.430Z,4.70
2022-10-17T00:10:44.792Z,4.20
2022-10-17T00:13:12.032Z,6.00
2022-10-17T00:15:43.870Z,5.20
2022-10-17T00:18:10.664Z,4.50
2022-10-17T00:20:37.272Z,4.50
2022-10-17T00:23:03.941Z,4.90
2022-10-17T00:25:30.633Z,7.10
2022-10-17T00:27:57.364Z,6.00
2022-10-17T00:30:24.004Z,7.10
2022-10-17T00:32:50.970Z,5.20
2022-10-17T00:35:17.650Z,4.80
2022-10-17T00:37:44.223Z,5.70
2022-10-17T00:40:11.309Z,3.90
2022-10-17T00:42:39.548Z,4.10
2022-10-17T00:45:28.618Z,4.60
2022-10-17T00:48:03.299Z,5.90
2022-10-17T00:50:31.349Z,6.40
2022-10-17T00:53:02.178Z,3.80
2022-10-17T00:55:32.572Z,5.90
2022-10-17T00:58:02.881Z,4.70
2022-10-17T01:00:30.007Z,5.50
2022-10-17T01:02:56.686Z,4.30
2022-10-17T01:05:23.343Z,4.10
2022-10-17T01:07:52.349Z,4.80
2022-10-17T01:10:20.284Z,4.60
2022-10-17T01:13:05.763Z,5.70
2022-10-17T01:16:00.294Z,3.50
2022-10-17T01:18:35.956Z,3.40
2022-10-17T01:21:20.369Z,5.20
2022-10-17T01:24:08.968Z,5.10
2022-10-17T01:27:14.115Z,6.20
2022-10-17T01:29:49.475Z,5.90
2022-10-17T01:32:32.409Z,3.60
2022-10-17T01:35:33.935Z,5.30
2022-10-17T01:38:03.521Z,4.20
2022-10-17T01:40:37.701Z,6.60
2022-10-17T01:43:10.853Z,5.00
2022-10-17T01:45:48.502Z,4.10
2022-10-17T01:48:22.096Z,3.50
2022-10-17T01:50:59.210Z,3.70
2022-10-17T01:53:33.940Z,3.80
2022-10-17T01:56:03.963Z,4.50
2022-10-17T01:58:40.684Z,3.50
2022-10-17T02:01:10.717Z,4.20
2022-10-17T02:03:40.747Z,3.30
2022-10-17T02:06:07.415Z,4.50
2022-10-17T02:08:49.487Z,4.30
2022-10-17T02:11:24.305Z,4.80
2022-10-17T02:14:10.053Z,4.00
2022-10-17T02:17:04.652Z,3.10
2022-10-17T02:19:46.293Z,3.60
2022-10-17T02:22:37.267Z,4.20
2022-10-17T02:25:30.939Z,4.40
2022-10-17T02:28:19.663Z,3.40
2022-10-17T02:30:48.996Z,3.60
2022-10-17T02:33:22.538Z,4.20
2022-10-17T02:35:54.005Z,3.30
2022-10-17T02:38:22.391Z,5.90
2022-10-17T02:40:51.711Z,3.80
2022-10-17T02:43:19.607Z,4.00
2022-10-17T02:45:46.938Z,3.70
2022-10-17T02:48:24.760Z,5.30
2022-10-17T02:51:07.120Z,3.90
2022-10-17T02:53:49.438Z,3.60
2022-10-17T02:56:20.731Z,4.60
2022-10-17T02:58:56.437Z,3.60
2022-10-17T03:01:24.422Z,4.60
2022-10-17T03:03:51.369Z,4.00
2022-10-17T03:06:18.054Z,5.10
2022-10-17T03:08:44.667Z,6.30
2022-10-17T03:11:11.396Z,6.80
2022-10-17T03:13:39.831Z,3.60
2022-10-17T03:16:06.861Z,4.40
2022-10-17T03:18:33.752Z,3.50
2022-10-17T03:21:00.438Z,3.70
2022-10-17T03:23:27.056Z,3.50
2022-10-17T03:25:54.171Z,5.70
2022-10-17T03:28:20.835Z,4.60
2022-10-17T03:30:47.499Z,5.00
2022-10-17T03:33:14.119Z,4.70
2022-10-17T03:35:40.825Z,6.20
2022-10-17T03:38:07.466Z,3.30
2022-10-17T03:40:34.093Z,3.10
2022-10-17T03:43:00.765Z,6.50
2022-10-17T03:45:27.931Z,5.80
2022-10-17T03:47:54.568Z,5.70
2022-10-17T03:50:21.290Z,3.40
2022-10-17T03:52:49.043Z,4.20
2022-10-17T03:55:16.494Z,4.80
2022-10-17T03:57:45.430Z,4.50
2022-10-17T04:00:12.783Z,4.00
2022-10-17T04:02:39.377Z,3.40
2022-10-17T04:05:06.857Z,3.10
2022-10-17T04:07:33.465Z,4.40
2022-10-17T04:10:00.056Z,4.20
2022-10-17T04:12:27.032Z,4.20
2022-10-17T04:14:54.067Z,4.60
2022-10-17T04:17:20.727Z,4.90
2022-10-17T04:19:48.954Z,4.50
2022-10-17T04:22:15.535Z,5.70
2022-10-17T04:24:42.831Z,4.30
2022-10-17T04:27:09.836Z,5.50
2022-10-17T04:29:36.439Z,3.30
2022-10-17T04:32:03.522Z,4.00
2022-10-17T04:34:30.288Z,4.90
2022-10-17T04:36:56.860Z,4.90
2022-10-17T04:39:23.812Z,3.70
2022-10-17T04:41:50.572Z,5.20
2022-10-17T04:44:17.491Z,5.00
2022-10-17T04:46:44.135Z,4.60
2022-10-17T04:49:10.814Z,3.70
2022-10-17T04:51:38.335Z,3.70
2022-10-17T04:54:05.086Z,4.30
2022-10-17T04:56:31.703Z,5.50
2022-10-17T04:58:59.118Z,4.80
2022-10-17T05:01:26.186Z,5.90
2022-10-17T05:03:53.213Z,5.10
2022-10-17T05:06:22.838Z,4.70
2022-10-17T05:08:50.175Z,4.30
2022-10-17T05:11:28.216Z,4.00
2022-10-17T05:14:01.933Z,3.90
2022-10-17T05:16:29.894Z,5.30
2022-10-17T05:18:58.852Z,3.60
2022-10-17T05:21:27.318Z,6.40
2022-10-17T05:23:54.450Z,5.20
2022-10-17T05:26:22.160Z,4.70
2022-10-17T05:28:49.202Z,4.20
2022-10-17T05:31:15.895Z,4.60
2022-10-17T05:33:42.664Z,7.10
2022-10-17T05:36:10.041Z,7.20
2022-10-17T05:38:36.676Z,6.10
2022-10-17T05:41:04.962Z,6.20
2022-10-17T05:43:32.861Z,4.20
2022-10-17T05:46:03.611Z,4.40
2022-10-17T05:48:30.282Z,4.50
2022-10-17T05:51:02.192Z,5.10
2022-10-17T05:53:34.357Z,4.80
2022-10-17T05:56:04.071Z,6.50
2022-10-17T05:58:49.229Z,6.60
2022-10-17T06:01:17.127Z,7.60
2022-10-17T06:03:44.015Z,8.60
2022-10-17T06:06:13.019Z,7.90
2022-10-17T06:08:40.221Z,6.70
2022-10-17T06:11:10.068Z,9.60
2022-10-17T06:13:38.482Z,8.50
2022-10-17T06:16:06.052Z,6.50
2022-10-17T06:18:32.835Z,5.80
2022-10-17T06:21:05.502Z,5.70
2022-10-17T06:23:32.982Z,7.40
2022-10-17T06:26:01.103Z,5.30
2022-10-17T06:28:27.743Z,5.50
2022-10-17T06:30:54.537Z,4.90
2022-10-17T06:33:22.645Z,5.20
2022-10-17T06:35:53.843Z,5.80
2022-10-17T06:38:21.081Z,5.10
2022-10-17T06:40:47.719Z,6.00
2022-10-17T06:43:14.390Z,6.70
2022-10-17T06:45:41.565Z,5.40
2022-10-17T06:48:08.354Z,4.90
2022-10-17T06:50:35.000Z,4.60
2022-10-17T06:53:01.775Z,4.20
2022-10-17T06:55:28.600Z,3.90
2022-10-17T06:57:55.914Z,4.00
2022-10-17T07:00:23.486Z,4.70
2022-10-17T07:02:50.100Z,6.00
2022-10-17T07:05:18.591Z,5.70
2022-10-17T07:07:47.450Z,5.10
2022-10-17T07:10:16.420Z,4.60
2022-10-17T07:12:45.036Z,5.30
2022-10-17T07:15:12.237Z,4.10
2022-10-17T07:17:38.875Z,3.30
2022-10-17T07:20:06.000Z,4.70
2022-10-17T07:22:32.818Z,3.70
2022-10-17T07:24:59.449Z,4.80
2022-10-17T07:27:26.245Z,4.40
2022-10-17T07:29:53.100Z,4.40
2022-10-17T07:32:19.681Z,3.20
2022-10-17T07:34:46.273Z,2.60
2022-10-17T07:37:13.024Z,4.30
2022-10-17T07:39:39.611Z,2.80
2022-10-17T07:42:07.189Z,3.50
2022-10-17T07:44:34.975Z,3.50
2022-10-17T07:47:01.842Z,3.70
2022-10-17T07:49:28.804Z,3.20
2022-10-17T07:51:55.694Z,3.50
2022-10-17T07:54:22.547Z,2.90
2022-10-17T07:56:49.794Z,4.20
2022-10-17T07:59:19.648Z,4.00
2022-10-17T08:04:12.948Z,5.30
2022-10-17T08:06:40.014Z,2.70
2022-10-17T08:09:06.669Z,3.70
2022-10-17T08:11:35.339Z,3.90
2022-10-17T08:14:02.257Z,4.90
2022-10-17T08:16:28.930Z,4.10
2022-10-17T08:18:55.553Z,3.50
2022-10-17T08:21:22.744Z,3.10
2022-10-17T08:23:52.644Z,4.00
2022-10-17T08:26:19.484Z,2.50
2022-10-17T08:28:47.438Z,4.70
2022-10-17T08:31:18.182Z,3.50
2022-10-17T08:33:45.250Z,2.30
2022-10-17T08:36:14.222Z,2.60
2022-10-17T08:38:43.514Z,2.20
2022-10-17T08:41:41.300Z,2.80
2022-10-17T08:44:28.192Z,8.20
2022-10-17T08:46:58.557Z,4.40
2022-10-17T08:49:41.668Z,3.70
2022-10-17T08:52:35.111Z,3.30
2022-10-17T08:55:01.894Z,4.30
2022-10-17T08:57:28.875Z,4.00
2022-10-17T08:59:56.601Z,5.00
2022-10-17T09:02:36.523Z,3.70
2022-10-17T09:05:30.291Z,4.30
2022-10-17T09:08:05.985Z,3.30
2022-10-17T09:10:55.250Z,4.90
2022-10-17T09:13:48.786Z,4.30
2022-10-17T09:16:46.549Z,4.10
2022-10-17T09:19:25.065Z,4.20
2022-10-17T09:21:59.650Z,4.40
2022-10-17T09:24:35.004Z,5.10
2022-10-17T09:27:02.779Z,6.30
2022-10-17T09:29:35.303Z,6.10
2022-10-17T09:32:13.583Z,6.40
2022-10-17T09:34:40.563Z,6.00
2022-10-17T09:37:13.811Z,6.00
2022-10-17T09:39:42.738Z,7.20
2022-10-17T09:42:13.841Z,10.20
2022-10-17T09:45:10.563Z,5.00
2022-10-17T09:47:40.841Z,7.80
2022-10-17T09:50:20.682Z,5.30
2022-10-17T09:52:50.114Z,5.10
2022-10-17T09:55:21.830Z,7.60
2022-10-17T09:57:55.252Z,9.70
2022-10-17T10:00:31.397Z,6.20
2022-10-17T10:03:25.958Z,7.90
2022-10-17T10:06:13.583Z,10.20
2022-10-17T10:08:59.422Z,10.40
2022-10-17T10:11:49.260Z,9.80
2022-10-17T10:14:45.178Z,6.50
2022-10-17T10:17:42.129Z,7.50
2022-10-17T10:20:30.450Z,8.20
2022-10-17T10:23:18.851Z,10.20
2022-10-17T10:25:51.329Z,7.30
2022-10-17T10:28:18.205Z,6.10
2022-10-17T10:30:50.702Z,6.00
2022-10-17T10:33:21.488Z,9.40
2022-10-17T10:35:58.226Z,8.90
2022-10-17T10:38:25.022Z,9.30
2022-10-17T10:41:00.967Z,7.50
2022-10-17T10:43:46.404Z,8.50
2022-10-17T10:46:27.841Z,7.70
2022-10-17T10:49:00.039Z,8.60
2022-10-17T10:51:29.045Z,8.60
2022-10-17T10:54:18.050Z,12.80
2022-10-17T10:56:51.269Z,10.30
2022-10-17T10:59:19.999Z,9.30
2022-10-17T11:02:09.725Z,12.30
2022-10-17T11:07:16.466Z,10.90
2022-10-17T11:10:24.679Z,9.60
2022-10-17T11:13:03.102Z,11.40
2022-10-17T11:15:42.283Z,12.00
2022-10-17T11:18:42.474Z,11.80
2022-10-17T11:21:52.885Z,11.50
2022-10-17T11:24:27.521Z,10.10
2022-10-17T11:27:04.178Z,12.30
2022-10-17T11:29:35.177Z,16.10
2022-10-17T11:32:17.704Z,13.00
2022-10-17T11:34:48.093Z,10.00
2022-10-17T11:37:20.917Z,9.90
2022-10-17T11:40:02.100Z,10.40
2022-10-17T11:42:50.370Z,10.90
2022-10-17T11:45:21.267Z,12.00
2022-10-17T11:48:01.256Z,14.10
2022-10-17T11:53:23.660Z,14.60
2022-10-17T11:55:52.416Z,14.10
2022-10-17T11:58:38.948Z,15.30
2022-10-17T12:01:44.649Z,15.40
2022-10-17T12:04:49.754Z,16.30
2022-10-17T12:07:35.143Z,13.70
2022-10-17T12:10:24.824Z,12.90
2022-10-17T12:12:51.612Z,11.90
2022-10-17T12:15:24.687Z,14.00
2022-10-17T12:17:57.781Z,13.80
2022-10-17T12:20:30.353Z,13.40
2022-10-17T12:23:12.241Z,14.10
2022-10-17T12:25:56.936Z,13.90
2022-10-17T12:28:46.796Z,13.00
2022-10-17T12:31:16.901Z,12.70
2022-10-17T12:33:50.941Z,14.00
2022-10-17T12:36:26.730Z,12.90
2022-10-17T12:39:02.339Z,14.90
2022-10-17T12:41:49.355Z,15.40
2022-10-17T12:44:22.591Z,14.20
2022-10-17T12:47:04.514Z,14.80
2022-10-17T12:49:43.557Z,15.60
2022-10-17T12:52:31.739Z,13.90
2022-10-17T12:55:12.731Z,14.20
2022-10-17T12:57:56.185Z,14.40
2022-10-17T13:00:22.888Z,16.10
2022-10-17T13:02:54.115Z,13.40
2022-10-17T13:05:32.272Z,12.80
2022-10-17T13:08:03.225Z,12.60
2022-10-17T13:10:34.325Z,12.00
2022-10-17T13:13:10.422Z,13.10
2022-10-17T13:15:37.132Z,12.20
2022-10-17T13:18:04.109Z,13.60
2022-10-17T13:20:31.887Z,13.10
2022-10-17T13:22:59.350Z,12.60
2022-10-17T13:25:27.271Z,13.30
2022-10-17T13:28:05.859Z,13.70
2022-10-17T13:30:35.098Z,11.50
2022-10-17T13:33:03.162Z,13.60
2022-10-17T13:35:58.802Z,14.60
2022-10-17T13:38:28.488Z,14.40
2022-10-17T13:41:05.914Z,12.80
2022-10-17T13:43:38.297Z,14.80
2022-10-17T13:46:25.369Z,13.10
2022-10-17T13:48:53.620Z,14.20
2022-10-17T13:51:27.559Z,13.70
2022-10-17T13:53:54.753Z,12.40
2022-10-17T13:56:29.518Z,13.20
2022-10-17T13:59:00.663Z,13.70
2022-10-17T14:01:28.661Z,13.00
2022-10-17T14:04:07.710Z,12.60
2022-10-17T14:06:47.869Z,11.30
2022-10-17T14:09:24.864Z,14.60
2022-10-17T14:11:57.735Z,25.60
2022-10-17T14:14:25.797Z,22.80
2022-10-17T14:16:52.858Z,12.50
2022-10-17T14:19:36.656Z,11.00
2022-10-17T14:22:36.228Z,11.20
2022-10-17T14:25:04.151Z,12.70
2022-10-17T14:27:41.809Z,14.30
2022-10-17T14:30:55.620Z,12.20
2022-10-17T14:33:32.159Z,11.10
2022-10-17T14:36:01.352Z,12.70
2022-10-17T14:38:29.547Z,11.70
2022-10-17T14:41:15.689Z,14.30
2022-10-17T14:43:56.435Z,13.80
2022-10-17T14:46:23.918Z,14.20
2022-10-17T14:48:53.536Z,11.10
2022-10-17T14:51:20.239Z,15.90
2022-10-17T14:54:05.017Z,13.60
2022-10-17T14:56:52.197Z,14.00
2022-10-17T14:59:51.423Z,12.00
2022-10-17T15:02:11.598Z,13.30
2022-10-17T15:04:38.455Z,12.30
2022-10-17T15:07:05.321Z,11.20
2022-10-17T15:09:32.313Z,15.20
2022-10-17T15:12:03.746Z,15.60
2022-10-17T15:14:30.440Z,13.90
2022-10-17T15:16:57.122Z,12.90
2022-10-17T15:19:23.991Z,15.00
2022-10-17T15:21:50.632Z,13.40
2022-10-17T15:24:17.299Z,14.20
2022-10-17T15:26:44.050Z,13.00
2022-10-17T15:29:14.996Z,11.90
2022-10-17T15:31:41.723Z,14.40
2022-10-17T15:34:08.414Z,13.40
2022-10-17T15:36:47.561Z,13.10
2022-10-17T15:39:14.274Z,14.80
2022-10-17T15:41:41.033Z,12.40
2022-10-17T15:44:07.683Z,13.00
2022-10-17T15:46:35.563Z,9.60
2022-10-17T15:49:07.844Z,10.70
2022-10-17T15:51:34.699Z,12.30
2022-10-17T15:54:01.594Z,13.60
2022-10-17T15:56:35.732Z,11.10
2022-10-17T15:59:11.690Z,15.20
2022-10-17T16:01:38.980Z,11.80
2022-10-17T16:04:06.372Z,10.90
2022-10-17T16:06:33.088Z,13.50
2022-10-17T16:09:00.031Z,12.60
2022-10-17T16:11:38.672Z,13.40
2022-10-17T16:14:10.350Z,13.30
2022-10-17T16:16:37.176Z,15.20
2022-10-17T16:19:04.822Z,18.90
2022-10-17T16:21:37.597Z,15.50
2022-10-17T16:24:05.718Z,14.70
2022-10-17T16:26:32.510Z,15.00
2022-10-17T16:29:02.110Z,18.10
2022-10-17T16:31:32.785Z,15.50
2022-10-17T16:34:00.874Z,16.60
2022-10-17T16:36:53.268Z,14.10
2022-10-17T16:39:51.816Z,17.40
2022-10-17T16:42:20.281Z,15.70
2022-10-17T16:44:48.776Z,14.40
2022-10-17T16:47:17.315Z,13.40
2022-10-17T16:49:45.401Z,16.00
2022-10-17T16:52:12.666Z,11.30
2022-10-17T16:54:39.622Z,14.30
2022-10-17T16:57:16.293Z,12.70
2022-10-17T16:59:49.874Z,14.00
2022-10-17T17:02:20.486Z,11.70
2022-10-17T17:04:52.644Z,13.90
2022-10-17T17:07:36.822Z,14.10
2022-10-17T17:10:08.707Z,15.50
2022-10-17T17:12:36.169Z,14.00
2022-10-17T17:15:12.078Z,15.30
2022-10-17T17:17:51.272Z,14.40
2022-10-17T17:20:20.974Z,13.80
2022-10-17T17:25:18.569Z,12.50
2022-10-17T17:29:00.768Z,17.00
2022-10-17T17:31:30.978Z,11.80
2022-10-17T17:33:59.938Z,15.20
2022-10-17T17:36:32.542Z,13.10
2022-10-17T17:39:03.757Z,11.90
2022-10-17T17:41:30.727Z,16.80
2022-10-17T17:44:00.620Z,16.90
2022-10-17T17:46:27.623Z,16.40
2022-10-17T17:48:54.799Z,14.90
2022-10-17T17:51:29.360Z,13.90
2022-10-17T17:53:57.140Z,13.30
2022-10-17T17:56:26.934Z,12.90
2022-10-17T17:59:00.113Z,11.90
2022-10-17T18:01:52.285Z,13.10
2022-10-17T18:08:10.557Z,13.40
2022-10-17T18:10:54.438Z,13.30
2022-10-17T18:13:21.419Z,15.70
2022-10-17T18:15:57.408Z,12.30
2022-10-17T18:18:28.452Z,10.90
2022-10-17T18:20:56.609Z,10.90
2022-10-17T18:23:23.529Z,16.10
2022-10-17T18:25:55.416Z,13.10
2022-10-17T18:28:23.224Z,11.70
2022-10-17T18:30:50.020Z,13.20
2022-10-17T18:33:16.770Z,14.70
2022-10-17T18:35:43.591Z,14.70
2022-10-17T18:38:11.641Z,13.70
2022-10-17T18:40:38.420Z,14.20
2022-10-17T18:43:05.178Z,13.70
2022-10-17T18:45:32.306Z,12.30
2022-10-17T18:47:59.055Z,14.40
2022-10-17T18:50:26.082Z,12.90
2022-10-17T18:52:52.999Z,12.60
2022-10-17T18:55:20.102Z,11.80
2022-10-17T18:57:50.517Z,13.70
2022-10-17T19:00:17.373Z,14.10
2022-10-17T19:02:44.252Z,11.90
2022-10-17T19:05:10.990Z,14.80
2022-10-17T19:07:38.810Z,13.30
2022-10-17T19:10:05.954Z,12.90
2022-10-17T19:12:32.792Z,11.70
2022-10-17T19:14:59.741Z,12.10
2022-10-17T19:17:26.673Z,13.70
2022-10-17T19:19:54.684Z,13.50
2022-10-17T19:22:22.154Z,12.10
2022-10-17T19:24:52.575Z,12.90
2022-10-17T19:27:24.722Z,13.60
2022-10-17T19:30:13.969Z,12.50
2022-10-17T19:32:40.847Z,12.30
2022-10-17T19:35:10.580Z,13.50
2022-10-17T19:37:50.292Z,12.00
2022-10-17T19:40:17.406Z,13.30
2022-10-17T19:42:44.308Z,14.70
2022-10-17T19:45:11.147Z,13.80
2022-10-17T19:47:39.216Z,11.60
2022-10-17T19:50:07.352Z,14.30
2022-10-17T19:52:34.387Z,13.70
2022-10-17T19:55:01.586Z,12.60
2022-10-17T19:57:28.381Z,14.00
2022-10-17T19:59:56.166Z,13.30
2022-10-17T20:02:23.265Z,11.90
2022-10-17T20:04:54.616Z,12.90
2022-10-17T20:07:33.439Z,12.40
2022-10-17T20:10:02.650Z,12.30
2022-10-17T20:12:30.018Z,13.50
2022-10-17T20:14:57.501Z,12.30
2022-10-17T20:17:24.608Z,13.70
2022-10-17T20:19:51.668Z,14.80
2022-10-17T20:22:18.722Z,11.60
2022-10-17T20:24:45.541Z,14.70
2022-10-17T20:27:12.290Z,12.90
2022-10-17T20:29:39.104Z,13.00
2022-10-17T20:32:06.593Z,13.40
2022-10-17T20:34:35.048Z,14.20
2022-10-17T20:39:30.458Z,12.90
2022-10-17T20:41:57.533Z,13.50
2022-10-17T20:44:24.274Z,13.40
2022-10-17T20:49:37.927Z,13.10
2022-10-17T20:52:06.513Z,13.20
2022-10-17T20:54:36.094Z,13.20
2022-10-17T20:57:20.676Z,14.10
2022-10-17T20:59:47.631Z,12.60
2022-10-17T21:02:15.680Z,15.20
2022-10-17T21:04:46.974Z,14.20
2022-10-17T21:07:15.271Z,13.70
2022-10-17T21:09:42.208Z,12.90
2022-10-17T21:12:11.132Z,13.10
2022-10-17T21:14:42.748Z,11.90
2022-10-17T21:17:12.041Z,14.30
2022-10-17T21:19:38.703Z,15.70
2022-10-17T21:22:05.398Z,14.10
2022-10-17T21:24:32.692Z,12.50
2022-10-17T21:26:59.750Z,13.10
2022-10-17T21:29:26.712Z,13.90
2022-10-17T21:31:53.560Z,12.20
2022-10-17T21:34:25.854Z,12.60
2022-10-17T21:36:54.534Z,12.70
2022-10-17T21:39:23.481Z,13.70
2022-10-17T21:41:51.483Z,12.20
2022-10-17T21:44:44.619Z,12.70
2022-10-17T21:47:28.133Z,13.10
2022-10-17T21:50:06.534Z,14.10
2022-10-17T21:52:39.045Z,13.40
2022-10-17T21:55:06.243Z,13.30
2022-10-17T21:57:33.194Z,12.40
2022-10-17T22:00:00.147Z,13.60
2022-10-17T22:02:29.966Z,12.60
2022-10-17T22:04:57.395Z,13.70
2022-10-17T22:07:24.327Z,10.40
2022-10-17T22:09:51.160Z,10.60
2022-10-17T22:12:19.574Z,11.20
2022-10-17T22:14:48.646Z,9.10
2022-10-17T22:17:15.701Z,9.60
2022-10-17T22:19:43.065Z,10.60
2022-10-17T22:22:09.717Z,8.70
2022-10-17T22:24:36.818Z,12.00
2022-10-17T22:27:03.643Z,9.50
2022-10-17T22:29:30.389Z,10.50
2022-10-17T22:31:57.129Z,8.40
2022-10-17T22:34:23.776Z,10.30
2022-10-17T22:36:50.478Z,8.90
2022-10-17T22:39:19.518Z,11.00
2022-10-17T22:41:48.762Z,10.10
2022-10-17T22:44:15.718Z,8.70
2022-10-17T22:46:44.299Z,9.90
2022-10-17T22:49:11.059Z,8.90
2022-10-17T22:51:37.808Z,8.70
2022-10-17T22:54:04.636Z,8.40
2022-10-17T22:56:31.536Z,8.00
2022-10-17T22:58:58.136Z,7.70
2022-10-17T23:01:25.117Z,8.20
2022-10-17T23:03:52.800Z,9.70
2022-10-17T23:06:21.193Z,5.60
2022-10-17T23:08:48.385Z,7.70
2022-10-17T23:11:15.550Z,7.70
2022-10-17T23:13:42.201Z,9.80
2022-10-17T23:16:09.324Z,5.80
2022-10-17T23:18:37.277Z,5.30
2022-10-17T23:21:04.435Z,7.20
2022-10-17T23:23:31.429Z,6.20
2022-10-17T23:26:09.923Z,5.20
2022-10-17T23:28:37.922Z,6.70
2022-10-17T23:31:22.708Z,7.00
2022-10-17T23:33:50.030Z,7.50
2022-10-17T23:36:19.215Z,6.10
2022-10-17T23:38:47.069Z,4.80
2022-10-17T23:41:14.705Z,4.30
2022-10-17T23:43:41.912Z,5.60
2022-10-17T23:46:09.211Z,5.70
2022-10-17T23:48:38.510Z,3.70
2022-10-17T23:51:06.978Z,4.70
2022-10-17T23:53:34.569Z,5.20
2022-10-17T23:56:01.294Z,4.00
2022-10-17T23:58:28.181Z,4.30
